sensor_id;sensor_type;location;lat;lon;timestamp;P1;durP1;ratioP1;P2;durP2;ratioP2
16673;SDS011;8450;52.654;10.326;2023-10-09T00:01:25;6.37;;;2.80;;
16673;SDS011;8450;52.654;10.326;2023-10-09T00:03:51;5.33;;;2.73;;
16673;SDS011;8450;52.654;10.326;2023-10-09T00:06:18;4.47;;;3.53;;
16673;SDS011;8450;52.654;10.326;2023-10-09T00:08:56;4.67;;;2.70;;
16673;SDS011;8450;52.654;10.326;2023-10-09T00:11:22;4.70;;;2.90;;
16673;SDS011;8450;52.654;10.326;2023-10-09T00:13:51;5.83;;;2.70;;
16673;SDS011;8450;52.654;10.326;2023-10-09T00:16:22;4.83;;;2.73;;
16673;SDS011;8450;52.654;10.326;2023-10-09T00:19:03;10.43;;;3.53;;
16673;SDS011;8450;52.654;10.326;2023-10-09T00:21:41;5.57;;;3.43;;
16673;SDS011;8450;52.654;10.326;2023-10-09T00:24:14;6.80;;;3.07;;
16673;SDS011;8450;52.654;10.326;2023-10-09T00:26:52;4.13;;;2.73;;
16673;SDS011;8450;52.654;10.326;2023-10-09T00:29:28;3.67;;;2.63;;
16673;SDS011;8450;52.654;10.326;2023-10-09T00:31:59;4.57;;;3.10;;
16673;SDS011;8450;52.654;10.326;2023-10-09T00:34:44;5.03;;;3.07;;
16673;SDS011;8450;52.654;10.326;2023-10-09T00:37:11;8.07;;;2.93;;
16673;SDS011;8450;52.654;10.326;2023-10-09T00:40:03;4.23;;;2.80;;
16673;SDS011;8450;52.654;10.326;2023-10-09T00:42:45;6.13;;;2.37;;
16673;SDS011;8450;52.654;10.326;2023-10-09T00:45:11;3.67;;;2.83;;
16673;SDS011;8450;52.654;10.326;2023-10-09T00:47:41;4.03;;;2.70;;
16673;SDS011;8450;52.654;10.326;2023-10-09T00:50:09;4.40;;;2.50;;
16673;SDS011;8450;52.654;10.326;2023-10-09T00:52:46;6.97;;;2.53;;
16673;SDS011;8450;52.654;10.326;2023-10-09T00:55:17;3.60;;;2.40;;
16673;SDS011;8450;52.654;10.326;2023-10-09T00:58:01;4.50;;;2.70;;
16673;SDS011;8450;52.654;10.326;2023-10-09T01:00:30;3.43;;;2.57;;
16673;SDS011;8450;52.654;10.326;2023-10-09T01:03:14;3.07;;;2.33;;
16673;SDS011;8450;52.654;10.326;2023-10-09T01:05:49;5.87;;;2.93;;
16673;SDS011;8450;52.654;10.326;2023-10-09T01:08:21;4.97;;;2.70;;
16673;SDS011;8450;52.654;10.326;2023-10-09T01:10:56;4.13;;;3.00;;
16673;SDS011;8450;52.654;10.326;2023-10-09T01:13:26;5.00;;;2.73;;
16673;SDS011;8450;52.654;10.326;2023-10-09T01:16:08;6.30;;;2.60;;
16673;SDS011;8450;52.654;10.326;2023-10-09T01:18:41;4.33;;;2.83;;
16673;SDS011;8450;52.654;10.326;2023-10-09T01:21:14;4.47;;;2.63;;
16673;SDS011;8450;52.654;10.326;2023-10-09T01:23:46;3.83;;;2.80;;
16673;SDS011;8450;52.654;10.326;2023-10-09T01:26:31;2.93;;;2.63;;
16673;SDS011;8450;52.654;10.326;2023-10-09T01:29:00;5.20;;;2.83;;
16673;SDS011;8450;52.654;10.326;2023-10-09T01:31:26;3.63;;;2.43;;
16673;SDS011;8450;52.654;10.326;2023-10-09T01:33:53;4.80;;;2.63;;
16673;SDS011;8450;52.654;10.326;2023-10-09T01:36:24;5.53;;;2.60;;
16673;SDS011;8450;52.654;10.326;2023-10-09T01:38:58;4.50;;;2.90;;
16673;SDS011;8450;52.654;10.326;2023-10-09T01:41:46;4.67;;;3.03;;
16673;SDS011;8450;52.654;10.326;2023-10-09T01:44:23;3.77;;;2.60;;
16673;SDS011;8450;52.654;10.326;2023-10-09T01:46:50;11.03;;;4.03;;
16673;SDS011;8450;52.654;10.326;2023-10-09T01:49:19;4.83;;;3.10;;
16673;SDS011;8450;52.654;10.326;2023-10-09T01:51:57;4.33;;;3.10;;
16673;SDS011;8450;52.654;10.326;2023-10-09T01:54:35;4.80;;;2.80;;
16673;SDS011;8450;52.654;10.326;2023-10-09T01:57:06;4.83;;;3.73;;
16673;SDS011;8450;52.654;10.326;2023-10-09T01:59:36;5.67;;;3.13;;
16673;SDS011;8450;52.654;10.326;2023-10-09T02:02:04;3.37;;;2.80;;
16673;SDS011;8450;52.654;10.326;2023-10-09T02:04:49;6.80;;;3.10;;
16673;SDS011;8450;52.654;10.326;2023-10-09T02:07:15;6.43;;;2.93;;
16673;SDS011;8450;52.654;10.326;2023-10-09T02:09:47;4.47;;;3.07;;
16673;SDS011;8450;52.654;10.326;2023-10-09T02:12:12;3.10;;;2.70;;
16673;SDS011;8450;52.654;10.326;2023-10-09T02:14:38;4.33;;;3.07;;
16673;SDS011;8450;52.654;10.326;2023-10-09T02:17:07;7.60;;;3.00;;
16673;SDS011;8450;52.654;10.326;2023-10-09T02:19:45;4.40;;;2.80;;
16673;SDS011;8450;52.654;10.326;2023-10-09T02:22:15;3.83;;;2.63;;
16673;SDS011;8450;52.654;10.326;2023-10-09T02:24:42;4.77;;;2.83;;
16673;SDS011;8450;52.654;10.326;2023-10-09T02:27:16;7.33;;;3.30;;
16673;SDS011;8450;52.654;10.326;2023-10-09T02:30:05;7.27;;;3.67;;
16673;SDS011;8450;52.654;10.326;2023-10-09T02:32:44;4.47;;;3.00;;
16673;SDS011;8450;52.654;10.326;2023-10-09T02:35:13;6.70;;;2.93;;
16673;SDS011;8450;52.654;10.326;2023-10-09T02:38:03;5.30;;;3.40;;
16673;SDS011;8450;52.654;10.326;2023-10-09T02:40:32;4.17;;;3.10;;
16673;SDS011;8450;52.654;10.326;2023-10-09T02:43:06;4.93;;;2.80;;
16673;SDS011;8450;52.654;10.326;2023-10-09T02:45:37;10.10;;;3.63;;
16673;SDS011;8450;52.654;10.326;2023-10-09T02:48:15;4.07;;;3.10;;
16673;SDS011;8450;52.654;10.326;2023-10-09T02:50:46;2.90;;;2.60;;
16673;SDS011;8450;52.654;10.326;2023-10-09T02:53:12;6.40;;;3.77;;
16673;SDS011;8450;52.654;10.326;2023-10-09T02:55:44;4.50;;;2.90;;
16673;SDS011;8450;52.654;10.326;2023-10-09T02:58:28;4.53;;;3.17;;
16673;SDS011;8450;52.654;10.326;2023-10-09T03:00:57;7.27;;;2.90;;
16673;SDS011;8450;52.654;10.326;2023-10-09T03:03:23;5.20;;;3.47;;
16673;SDS011;8450;52.654;10.326;2023-10-09T03:05:50;4.13;;;3.30;;
16673;SDS011;8450;52.654;10.326;2023-10-09T03:08:17;4.80;;;3.53;;
16673;SDS011;8450;52.654;10.326;2023-10-09T03:10:44;5.10;;;3.23;;
16673;SDS011;8450;52.654;10.326;2023-10-09T03:13:10;5.17;;;3.37;;
16673;SDS011;8450;52.654;10.326;2023-10-09T03:15:36;8.47;;;4.30;;
16673;SDS011;8450;52.654;10.326;2023-10-09T03:18:04;3.60;;;3.23;;
16673;SDS011;8450;52.654;10.326;2023-10-09T03:20:30;6.80;;;4.10;;
16673;SDS011;8450;52.654;10.326;2023-10-09T03:22:56;5.33;;;3.27;;
16673;SDS011;8450;52.654;10.326;2023-10-09T03:25:22;4.80;;;3.33;;
16673;SDS011;8450;52.654;10.326;2023-10-09T03:27:50;5.47;;;3.27;;
16673;SDS011;8450;52.654;10.326;2023-10-09T03:30:18;5.27;;;3.70;;
16673;SDS011;8450;52.654;10.326;2023-10-09T03:32:49;4.73;;;3.20;;
16673;SDS011;8450;52.654;10.326;2023-10-09T03:35:19;5.23;;;4.03;;
16673;SDS011;8450;52.654;10.326;2023-10-09T03:37:59;4.57;;;3.37;;
16673;SDS011;8450;52.654;10.326;2023-10-09T03:40:31;6.07;;;3.27;;
16673;SDS011;8450;52.654;10.326;2023-10-09T03:42:57;4.00;;;3.20;;
16673;SDS011;8450;52.654;10.326;2023-10-09T03:45:22;4.37;;;3.23;;
16673;SDS011;8450;52.654;10.326;2023-10-09T03:47:53;7.23;;;3.83;;
16673;SDS011;8450;52.654;10.326;2023-10-09T03:50:40;7.83;;;3.80;;
16673;SDS011;8450;52.654;10.326;2023-10-09T03:53:08;5.43;;;3.20;;
16673;SDS011;8450;52.654;10.326;2023-10-09T03:55:36;5.23;;;3.33;;
16673;SDS011;8450;52.654;10.326;2023-10-09T03:58:06;6.20;;;3.53;;
16673;SDS011;8450;52.654;10.326;2023-10-09T04:00:32;4.63;;;3.50;;
16673;SDS011;8450;52.654;10.326;2023-10-09T04:03:09;5.67;;;3.30;;
16673;SDS011;8450;52.654;10.326;2023-10-09T04:05:36;5.63;;;3.30;;
16673;SDS011;8450;52.654;10.326;2023-10-09T04:08:02;5.90;;;3.97;;
16673;SDS011;8450;52.654;10.326;2023-10-09T04:10:37;6.00;;;3.30;;
16673;SDS011;8450;52.654;10.326;2023-10-09T04:13:10;5.47;;;3.17;;
16673;SDS011;8450;52.654;10.326;2023-10-09T04:15:37;5.67;;;3.67;;
16673;SDS011;8450;52.654;10.326;2023-10-09T04:18:03;4.13;;;3.37;;
16673;SDS011;8450;52.654;10.326;2023-10-09T04:20:34;4.53;;;3.40;;
16673;SDS011;8450;52.654;10.326;2023-10-09T04:23:32;5.33;;;3.30;;
16673;SDS011;8450;52.654;10.326;2023-10-09T04:26:01;3.90;;;3.00;;
16673;SDS011;8450;52.654;10.326;2023-10-09T04:28:39;5.10;;;3.10;;
16673;SDS011;8450;52.654;10.326;2023-10-09T04:31:07;4.10;;;3.27;;
16673;SDS011;8450;52.654;10.326;2023-10-09T04:33:32;3.27;;;2.90;;
16673;SDS011;8450;52.654;10.326;2023-10-09T04:36:01;4.27;;;3.40;;
16673;SDS011;8450;52.654;10.326;2023-10-09T04:38:54;4.77;;;2.97;;
16673;SDS011;8450;52.654;10.326;2023-10-09T04:41:29;4.33;;;3.70;;
16673;SDS011;8450;52.654;10.326;2023-10-09T04:44:00;5.77;;;3.40;;
16673;SDS011;8450;52.654;10.326;2023-10-09T04:46:47;4.23;;;3.07;;
16673;SDS011;8450;52.654;10.326;2023-10-09T04:49:34;4.57;;;3.20;;
16673;SDS011;8450;52.654;10.326;2023-10-09T04:52:12;4.67;;;3.10;;
16673;SDS011;8450;52.654;10.326;2023-10-09T04:54:50;7.13;;;3.23;;
16673;SDS011;8450;52.654;10.326;2023-10-09T04:57:32;3.50;;;2.90;;
16673;SDS011;8450;52.654;10.326;2023-10-09T05:00:16;3.93;;;3.40;;
16673;SDS011;8450;52.654;10.326;2023-10-09T05:02:52;6.87;;;3.63;;
16673;SDS011;8450;52.654;10.326;2023-10-09T05:05:37;6.43;;;3.50;;
16673;SDS011;8450;52.654;10.326;2023-10-09T05:08:10;6.43;;;3.77;;
16673;SDS011;8450;52.654;10.326;2023-10-09T05:11:01;4.27;;;3.17;;
16673;SDS011;8450;52.654;10.326;2023-10-09T05:13:28;4.10;;;3.00;;
16673;SDS011;8450;52.654;10.326;2023-10-09T05:16:03;5.33;;;3.50;;
16673;SDS011;8450;52.654;10.326;2023-10-09T05:18:29;7.07;;;3.83;;
16673;SDS011;8450;52.654;10.326;2023-10-09T05:21:01;7.57;;;3.40;;
16673;SDS011;8450;52.654;10.326;2023-10-09T05:23:46;7.77;;;4.20;;
16673;SDS011;8450;52.654;10.326;2023-10-09T05:26:34;5.60;;;3.47;;
16673;SDS011;8450;52.654;10.326;2023-10-09T05:31:51;4.97;;;3.57;;
16673;SDS011;8450;52.654;10.326;2023-10-09T05:34:35;6.40;;;3.40;;
16673;SDS011;8450;52.654;10.326;2023-10-09T05:37:19;4.80;;;3.60;;
16673;SDS011;8450;52.654;10.326;2023-10-09T05:39:53;5.37;;;3.27;;
16673;SDS011;8450;52.654;10.326;2023-10-09T05:42:29;6.07;;;3.80;;
16673;SDS011;8450;52.654;10.326;2023-10-09T05:45:07;7.23;;;3.93;;
16673;SDS011;8450;52.654;10.326;2023-10-09T05:47:49;6.30;;;4.00;;
16673;SDS011;8450;52.654;10.326;2023-10-09T05:50:29;6.90;;;3.93;;
16673;SDS011;8450;52.654;10.326;2023-10-09T05:53:03;5.13;;;3.67;;
16673;SDS011;8450;52.654;10.326;2023-10-09T05:55:29;5.87;;;3.87;;
16673;SDS011;8450;52.654;10.326;2023-10-09T05:58:14;4.30;;;3.83;;
16673;SDS011;8450;52.654;10.326;2023-10-09T06:00:58;5.33;;;3.70;;
16673;SDS011;8450;52.654;10.326;2023-10-09T06:03:42;8.10;;;3.53;;
16673;SDS011;8450;52.654;10.326;2023-10-09T06:06:16;4.33;;;3.93;;
16673;SDS011;8450;52.654;10.326;2023-10-09T06:09:20;7.00;;;4.37;;
16673;SDS011;8450;52.654;10.326;2023-10-09T06:11:49;7.13;;;4.00;;
16673;SDS011;8450;52.654;10.326;2023-10-09T06:14:15;8.10;;;3.97;;
16673;SDS011;8450;52.654;10.326;2023-10-09T06:16:50;4.50;;;4.10;;
16673;SDS011;8450;52.654;10.326;2023-10-09T06:19:26;6.40;;;4.43;;
16673;SDS011;8450;52.654;10.326;2023-10-09T06:21:55;6.90;;;4.00;;
16673;SDS011;8450;52.654;10.326;2023-10-09T06:24:37;6.70;;;4.63;;
16673;SDS011;8450;52.654;10.326;2023-10-09T06:27:07;8.57;;;4.13;;
16673;SDS011;8450;52.654;10.326;2023-10-09T06:29:37;6.20;;;4.17;;
16673;SDS011;8450;52.654;10.326;2023-10-09T06:32:15;9.23;;;3.97;;
16673;SDS011;8450;52.654;10.326;2023-10-09T06:34:45;6.30;;;4.40;;
16673;SDS011;8450;52.654;10.326;2023-10-09T06:37:17;4.97;;;4.03;;
16673;SDS011;8450;52.654;10.326;2023-10-09T06:39:56;5.67;;;4.67;;
16673;SDS011;8450;52.654;10.326;2023-10-09T06:42:22;6.47;;;4.80;;
16673;SDS011;8450;52.654;10.326;2023-10-09T06:45:07;5.73;;;4.90;;
16673;SDS011;8450;52.654;10.326;2023-10-09T06:47:46;5.27;;;4.23;;
16673;SDS011;8450;52.654;10.326;2023-10-09T06:50:36;7.53;;;4.63;;
16673;SDS011;8450;52.654;10.326;2023-10-09T06:53:22;5.40;;;4.87;;
16673;SDS011;8450;52.654;10.326;2023-10-09T06:56:11;6.10;;;4.97;;
16673;SDS011;8450;52.654;10.326;2023-10-09T06:58:48;5.50;;;4.90;;
16673;SDS011;8450;52.654;10.326;2023-10-09T07:01:14;6.07;;;5.20;;
16673;SDS011;8450;52.654;10.326;2023-10-09T07:03:56;7.83;;;5.77;;
16673;SDS011;8450;52.654;10.326;2023-10-09T07:06:35;5.73;;;5.13;;
16673;SDS011;8450;52.654;10.326;2023-10-09T07:09:01;6.67;;;5.17;;
16673;SDS011;8450;52.654;10.326;2023-10-09T07:11:40;8.10;;;5.60;;
16673;SDS011;8450;52.654;10.326;2023-10-09T07:16:55;5.90;;;5.40;;
16673;SDS011;8450;52.654;10.326;2023-10-09T07:19:29;5.57;;;4.97;;
16673;SDS011;8450;52.654;10.326;2023-10-09T07:22:00;8.70;;;5.70;;
16673;SDS011;8450;52.654;10.326;2023-10-09T07:24:29;9.20;;;5.87;;
16673;SDS011;8450;52.654;10.326;2023-10-09T07:27:22;6.60;;;5.57;;
16673;SDS011;8450;52.654;10.326;2023-10-09T07:33:03;6.90;;;6.20;;
16673;SDS011;8450;52.654;10.326;2023-10-09T07:35:35;10.00;;;5.40;;
16673;SDS011;8450;52.654;10.326;2023-10-09T07:38:26;6.67;;;5.53;;
16673;SDS011;8450;52.654;10.326;2023-10-09T07:41:01;7.23;;;6.20;;
16673;SDS011;8450;52.654;10.326;2023-10-09T07:43:28;10.40;;;6.50;;
16673;SDS011;8450;52.654;10.326;2023-10-09T07:46:04;9.23;;;6.70;;
16673;SDS011;8450;52.654;10.326;2023-10-09T07:48:52;8.33;;;6.63;;
16673;SDS011;8450;52.654;10.326;2023-10-09T07:51:18;8.90;;;5.93;;
16673;SDS011;8450;52.654;10.326;2023-10-09T07:53:48;10.07;;;6.73;;
16673;SDS011;8450;52.654;10.326;2023-10-09T07:56:32;6.93;;;5.67;;
16673;SDS011;8450;52.654;10.326;2023-10-09T07:59:10;7.37;;;5.43;;
16673;SDS011;8450;52.654;10.326;2023-10-09T08:01:43;7.60;;;5.23;;
16673;SDS011;8450;52.654;10.326;2023-10-09T08:04:27;6.47;;;4.87;;
16673;SDS011;8450;52.654;10.326;2023-10-09T08:07:11;5.77;;;4.47;;
16673;SDS011;8450;52.654;10.326;2023-10-09T08:09:47;5.67;;;4.87;;
16673;SDS011;8450;52.654;10.326;2023-10-09T08:12:13;7.83;;;5.50;;
16673;SDS011;8450;52.654;10.326;2023-10-09T08:15:00;6.27;;;5.43;;
16673;SDS011;8450;52.654;10.326;2023-10-09T08:17:46;6.97;;;5.93;;
16673;SDS011;8450;52.654;10.326;2023-10-09T08:20:22;8.07;;;5.53;;
16673;SDS011;8450;52.654;10.326;2023-10-09T08:22:54;6.37;;;4.83;;
16673;SDS011;8450;52.654;10.326;2023-10-09T08:25:21;7.70;;;6.00;;
16673;SDS011;8450;52.654;10.326;2023-10-09T08:27:55;5.70;;;5.10;;
16673;SDS011;8450;52.654;10.326;2023-10-09T08:30:24;5.17;;;4.67;;
16673;SDS011;8450;52.654;10.326;2023-10-09T08:32:50;5.90;;;4.93;;
16673;SDS011;8450;52.654;10.326;2023-10-09T08:35:29;7.77;;;4.90;;
16673;SDS011;8450;52.654;10.326;2023-10-09T08:37:58;5.77;;;5.20;;
16673;SDS011;8450;52.654;10.326;2023-10-09T08:40:35;8.57;;;6.43;;
16673;SDS011;8450;52.654;10.326;2023-10-09T08:43:14;7.40;;;5.20;;
16673;SDS011;8450;52.654;10.326;2023-10-09T08:45:59;7.83;;;5.57;;
16673;SDS011;8450;52.654;10.326;2023-10-09T08:48:29;9.00;;;5.83;;
16673;SDS011;8450;52.654;10.326;2023-10-09T08:50:55;8.07;;;5.90;;
16673;SDS011;8450;52.654;10.326;2023-10-09T08:53:21;5.80;;;4.90;;
16673;SDS011;8450;52.654;10.326;2023-10-09T08:55:49;8.93;;;5.20;;
16673;SDS011;8450;52.654;10.326;2023-10-09T08:58:14;5.80;;;4.47;;
16673;SDS011;8450;52.654;10.326;2023-10-09T09:00:44;6.40;;;4.87;;
16673;SDS011;8450;52.654;10.326;2023-10-09T09:03:15;9.17;;;6.03;;
16673;SDS011;8450;52.654;10.326;2023-10-09T09:05:48;8.90;;;6.00;;
16673;SDS011;8450;52.654;10.326;2023-10-09T09:08:22;8.13;;;6.20;;
16673;SDS011;8450;52.654;10.326;2023-10-09T09:13:52;9.47;;;5.70;;
16673;SDS011;8450;52.654;10.326;2023-10-09T09:16:29;6.27;;;5.13;;
16673;SDS011;8450;52.654;10.326;2023-10-09T09:21:34;6.00;;;5.37;;
16673;SDS011;8450;52.654;10.326;2023-10-09T09:24:13;6.40;;;5.30;;
16673;SDS011;8450;52.654;10.326;2023-10-09T09:26:56;6.70;;;5.50;;
16673;SDS011;8450;52.654;10.326;2023-10-09T09:32:03;7.03;;;5.17;;
16673;SDS011;8450;52.654;10.326;2023-10-09T09:34:47;5.53;;;4.93;;
16673;SDS011;8450;52.654;10.326;2023-10-09T09:37:25;6.50;;;5.40;;
16673;SDS011;8450;52.654;10.326;2023-10-09T09:39:59;6.00;;;4.67;;
16673;SDS011;8450;52.654;10.326;2023-10-09T09:42:29;5.87;;;5.13;;
16673;SDS011;8450;52.654;10.326;2023-10-09T09:45:00;7.43;;;5.20;;
16673;SDS011;8450;52.654;10.326;2023-10-09T09:47:27;5.70;;;5.10;;
16673;SDS011;8450;52.654;10.326;2023-10-09T09:49:56;6.00;;;5.03;;
16673;SDS011;8450;52.654;10.326;2023-10-09T09:52:28;6.73;;;5.40;;
16673;SDS011;8450;52.654;10.326;2023-10-09T09:54:54;6.60;;;5.10;;
16673;SDS011;8450;52.654;10.326;2023-10-09T09:57:23;5.50;;;4.73;;
16673;SDS011;8450;52.654;10.326;2023-10-09T09:59:51;8.97;;;6.17;;
16673;SDS011;8450;52.654;10.326;2023-10-09T10:02:28;7.70;;;6.03;;
16673;SDS011;8450;52.654;10.326;2023-10-09T10:04:59;11.37;;;8.20;;
16673;SDS011;8450;52.654;10.326;2023-10-09T10:07:30;9.27;;;7.37;;
16673;SDS011;8450;52.654;10.326;2023-10-09T10:10:03;11.27;;;7.17;;
16673;SDS011;8450;52.654;10.326;2023-10-09T10:13:13;11.33;;;7.50;;
16673;SDS011;8450;52.654;10.326;2023-10-09T10:18:25;10.80;;;8.10;;
16673;SDS011;8450;52.654;10.326;2023-10-09T10:21:09;12.23;;;6.90;;
16673;SDS011;8450;52.654;10.326;2023-10-09T10:23:41;9.73;;;6.83;;
16673;SDS011;8450;52.654;10.326;2023-10-09T10:26:17;8.77;;;7.03;;
16673;SDS011;8450;52.654;10.326;2023-10-09T10:28:56;11.47;;;8.00;;
16673;SDS011;8450;52.654;10.326;2023-10-09T10:31:57;10.60;;;7.50;;
16673;SDS011;8450;52.654;10.326;2023-10-09T10:37:42;11.57;;;8.00;;
16673;SDS011;8450;52.654;10.326;2023-10-09T10:40:24;16.10;;;9.43;;
16673;SDS011;8450;52.654;10.326;2023-10-09T10:43:14;15.83;;;10.43;;
16673;SDS011;8450;52.654;10.326;2023-10-09T10:48:33;18.27;;;10.20;;
16673;SDS011;8450;52.654;10.326;2023-10-09T10:51:05;18.07;;;9.87;;
16673;SDS011;8450;52.654;10.326;2023-10-09T10:53:31;14.83;;;9.87;;
16673;SDS011;8450;52.654;10.326;2023-10-09T10:56:12;24.73;;;11.77;;
16673;SDS011;8450;52.654;10.326;2023-10-09T10:58:42;19.50;;;11.47;;
16673;SDS011;8450;52.654;10.326;2023-10-09T11:01:30;24.43;;;12.70;;
16673;SDS011;8450;52.654;10.326;2023-10-09T11:04:21;25.63;;;12.73;;
16673;SDS011;8450;52.654;10.326;2023-10-09T11:07:03;19.83;;;11.17;;
16673;SDS011;8450;52.654;10.326;2023-10-09T11:09:55;26.33;;;13.23;;
16673;SDS011;8450;52.654;10.326;2023-10-09T11:17:58;27.13;;;16.30;;
16673;SDS011;8450;52.654;10.326;2023-10-09T11:23:32;38.53;;;18.57;;
16673;SDS011;8450;52.654;10.326;2023-10-09T11:26:01;32.97;;;16.23;;
16673;SDS011;8450;52.654;10.326;2023-10-09T11:28:46;31.00;;;16.87;;
16673;SDS011;8450;52.654;10.326;2023-10-09T11:31:38;30.73;;;17.87;;
16673;SDS011;8450;52.654;10.326;2023-10-09T11:34:05;45.17;;;22.30;;
16673;SDS011;8450;52.654;10.326;2023-10-09T11:36:54;54.27;;;22.60;;
16673;SDS011;8450;52.654;10.326;2023-10-09T11:39:30;71.70;;;30.97;;
16673;SDS011;8450;52.654;10.326;2023-10-09T11:42:03;51.33;;;24.67;;
16673;SDS011;8450;52.654;10.326;2023-10-09T11:44:37;52.83;;;24.97;;
16673;SDS011;8450;52.654;10.326;2023-10-09T11:47:10;69.83;;;31.70;;
16673;SDS011;8450;52.654;10.326;2023-10-09T11:49:52;59.23;;;25.40;;
16673;SDS011;8450;52.654;10.326;2023-10-09T11:52:30;72.70;;;29.73;;
16673;SDS011;8450;52.654;10.326;2023-10-09T11:55:00;65.90;;;27.00;;
16673;SDS011;8450;52.654;10.326;2023-10-09T11:57:32;53.80;;;25.97;;
16673;SDS011;8450;52.654;10.326;2023-10-09T12:00:03;56.90;;;25.80;;
16673;SDS011;8450;52.654;10.326;2023-10-09T12:02:52;57.37;;;26.97;;
16673;SDS011;8450;52.654;10.326;2023-10-09T12:05:18;61.13;;;26.43;;
16673;SDS011;8450;52.654;10.326;2023-10-09T12:07:47;59.47;;;25.70;;
16673;SDS011;8450;52.654;10.326;2023-10-09T12:10:20;73.37;;;29.90;;
16673;SDS011;8450;52.654;10.326;2023-10-09T12:12:51;52.03;;;25.63;;
16673;SDS011;8450;52.654;10.326;2023-10-09T12:15:18;62.57;;;27.00;;
16673;SDS011;8450;52.654;10.326;2023-10-09T12:17:44;63.43;;;30.10;;
16673;SDS011;8450;52.654;10.326;2023-10-09T12:20:12;69.77;;;31.00;;
16673;SDS011;8450;52.654;10.326;2023-10-09T12:22:55;56.13;;;24.40;;
16673;SDS011;8450;52.654;10.326;2023-10-09T12:25:25;58.63;;;25.77;;
16673;SDS011;8450;52.654;10.326;2023-10-09T12:27:51;55.13;;;27.50;;
16673;SDS011;8450;52.654;10.326;2023-10-09T12:30:22;53.80;;;29.03;;
16673;SDS011;8450;52.654;10.326;2023-10-09T12:32:57;51.93;;;24.93;;
16673;SDS011;8450;52.654;10.326;2023-10-09T12:35:24;57.40;;;25.87;;
16673;SDS011;8450;52.654;10.326;2023-10-09T12:37:50;41.40;;;22.13;;
16673;SDS011;8450;52.654;10.326;2023-10-09T12:40:20;47.80;;;25.27;;
16673;SDS011;8450;52.654;10.326;2023-10-09T12:42:52;41.70;;;22.43;;
16673;SDS011;8450;52.654;10.326;2023-10-09T12:45:17;45.60;;;26.67;;
16673;SDS011;8450;52.654;10.326;2023-10-09T12:47:45;53.97;;;25.40;;
16673;SDS011;8450;52.654;10.326;2023-10-09T12:50:12;47.87;;;22.23;;
16673;SDS011;8450;52.654;10.326;2023-10-09T12:52:39;48.97;;;24.23;;
16673;SDS011;8450;52.654;10.326;2023-10-09T12:55:05;41.37;;;20.77;;
16673;SDS011;8450;52.654;10.326;2023-10-09T12:57:35;50.20;;;22.33;;
16673;SDS011;8450;52.654;10.326;2023-10-09T13:00:01;39.87;;;21.77;;
16673;SDS011;8450;52.654;10.326;2023-10-09T13:02:36;50.17;;;25.23;;
16673;SDS011;8450;52.654;10.326;2023-10-09T13:05:01;50.20;;;27.20;;
16673;SDS011;8450;52.654;10.326;2023-10-09T13:07:30;43.70;;;25.67;;
16673;SDS011;8450;52.654;10.326;2023-10-09T13:09:56;41.27;;;23.27;;
16673;SDS011;8450;52.654;10.326;2023-10-09T13:12:35;40.03;;;24.40;;
16673;SDS011;8450;52.654;10.326;2023-10-09T13:15:06;37.07;;;22.67;;
16673;SDS011;8450;52.654;10.326;2023-10-09T13:17:35;39.33;;;21.53;;
16673;SDS011;8450;52.654;10.326;2023-10-09T13:20:02;32.00;;;21.47;;
16673;SDS011;8450;52.654;10.326;2023-10-09T13:22:37;33.80;;;21.87;;
16673;SDS011;8450;52.654;10.326;2023-10-09T13:25:13;40.63;;;23.60;;
16673;SDS011;8450;52.654;10.326;2023-10-09T13:27:41;23.50;;;16.97;;
16673;SDS011;8450;52.654;10.326;2023-10-09T13:30:13;34.13;;;23.00;;
16673;SDS011;8450;52.654;10.326;2023-10-09T13:32:47;32.80;;;22.00;;
16673;SDS011;8450;52.654;10.326;2023-10-09T13:35:16;31.20;;;18.53;;
16673;SDS011;8450;52.654;10.326;2023-10-09T13:37:52;29.27;;;19.43;;
16673;SDS011;8450;52.654;10.326;2023-10-09T13:40:21;33.80;;;23.00;;
16673;SDS011;8450;52.654;10.326;2023-10-09T13:42:54;31.30;;;22.63;;
16673;SDS011;8450;52.654;10.326;2023-10-09T13:45:24;27.57;;;18.13;;
16673;SDS011;8450;52.654;10.326;2023-10-09T13:47:52;28.73;;;19.83;;
16673;SDS011;8450;52.654;10.326;2023-10-09T13:50:19;26.80;;;18.90;;
16673;SDS011;8450;52.654;10.326;2023-10-09T13:52:47;27.30;;;18.73;;
16673;SDS011;8450;52.654;10.326;2023-10-09T13:55:13;23.77;;;17.17;;
16673;SDS011;8450;52.654;10.326;2023-10-09T13:57:42;27.10;;;18.17;;
16673;SDS011;8450;52.654;10.326;2023-10-09T14:00:11;28.93;;;20.93;;
16673;SDS011;8450;52.654;10.326;2023-10-09T14:02:42;26.83;;;20.20;;
16673;SDS011;8450;52.654;10.326;2023-10-09T14:05:08;27.03;;;17.97;;
16673;SDS011;8450;52.654;10.326;2023-10-09T14:07:33;24.77;;;15.87;;
16673;SDS011;8450;52.654;10.326;2023-10-09T14:10:00;28.80;;;19.67;;
16673;SDS011;8450;52.654;10.326;2023-10-09T14:12:43;34.73;;;20.10;;
16673;SDS011;8450;52.654;10.326;2023-10-09T14:15:09;25.87;;;18.30;;
16673;SDS011;8450;52.654;10.326;2023-10-09T14:17:42;29.03;;;20.13;;
16673;SDS011;8450;52.654;10.326;2023-10-09T14:20:08;35.40;;;19.77;;
16673;SDS011;8450;52.654;10.326;2023-10-09T14:22:52;25.73;;;15.90;;
16673;SDS011;8450;52.654;10.326;2023-10-09T14:25:18;23.77;;;16.17;;
16673;SDS011;8450;52.654;10.326;2023-10-09T14:27:46;20.67;;;14.53;;
16673;SDS011;8450;52.654;10.326;2023-10-09T14:30:13;25.23;;;17.23;;
16673;SDS011;8450;52.654;10.326;2023-10-09T14:32:48;21.60;;;16.87;;
16673;SDS011;8450;52.654;10.326;2023-10-09T14:35:20;19.73;;;14.73;;
16673;SDS011;8450;52.654;10.326;2023-10-09T14:37:51;24.87;;;16.63;;
16673;SDS011;8450;52.654;10.326;2023-10-09T14:40:18;20.70;;;12.97;;
16673;SDS011;8450;52.654;10.326;2023-10-09T14:42:55;21.37;;;15.53;;
16673;SDS011;8450;52.654;10.326;2023-10-09T14:45:23;26.80;;;15.53;;
16673;SDS011;8450;52.654;10.326;2023-10-09T14:47:55;15.60;;;12.57;;
16673;SDS011;8450;52.654;10.326;2023-10-09T14:50:21;21.23;;;16.00;;
16673;SDS011;8450;52.654;10.326;2023-10-09T14:52:49;20.57;;;14.20;;
16673;SDS011;8450;52.654;10.326;2023-10-09T14:55:18;23.00;;;14.97;;
16673;SDS011;8450;52.654;10.326;2023-10-09T14:57:52;23.50;;;16.30;;
16673;SDS011;8450;52.654;10.326;2023-10-09T15:00:18;22.10;;;14.07;;
16673;SDS011;8450;52.654;10.326;2023-10-09T15:02:48;22.00;;;14.70;;
16673;SDS011;8450;52.654;10.326;2023-10-09T15:05:15;21.80;;;15.00;;
16673;SDS011;8450;52.654;10.326;2023-10-09T15:07:41;17.57;;;11.27;;
16673;SDS011;8450;52.654;10.326;2023-10-09T15:10:07;13.97;;;11.17;;
16673;SDS011;8450;52.654;10.326;2023-10-09T15:12:34;16.63;;;10.37;;
16673;SDS011;8450;52.654;10.326;2023-10-09T15:15:05;10.13;;;8.37;;
16673;SDS011;8450;52.654;10.326;2023-10-09T15:17:38;10.80;;;9.43;;
16673;SDS011;8450;52.654;10.326;2023-10-09T15:20:09;11.10;;;9.10;;
16673;SDS011;8450;52.654;10.326;2023-10-09T15:22:39;12.60;;;8.03;;
16673;SDS011;8450;52.654;10.326;2023-10-09T15:25:05;11.07;;;8.47;;
16673;SDS011;8450;52.654;10.326;2023-10-09T15:27:31;11.07;;;8.43;;
16673;SDS011;8450;52.654;10.326;2023-10-09T15:29:57;10.27;;;8.53;;
16673;SDS011;8450;52.654;10.326;2023-10-09T15:32:22;9.13;;;7.47;;
16673;SDS011;8450;52.654;10.326;2023-10-09T15:34:54;9.83;;;7.33;;
16673;SDS011;8450;52.654;10.326;2023-10-09T15:37:21;11.23;;;7.60;;
16673;SDS011;8450;52.654;10.326;2023-10-09T15:39:47;9.33;;;7.10;;
16673;SDS011;8450;52.654;10.326;2023-10-09T15:42:14;7.43;;;6.53;;
16673;SDS011;8450;52.654;10.326;2023-10-09T15:44:41;8.87;;;6.67;;
16673;SDS011;8450;52.654;10.326;2023-10-09T15:47:07;9.13;;;6.70;;
16673;SDS011;8450;52.654;10.326;2023-10-09T15:49:37;7.70;;;5.93;;